sensor_id;sensor_type;location;lat;lon;timestamp;P1;durP1;ratioP1;P2;durP2;ratioP2
52918;SDS011;38793;52.690;6.812;2022-12-05T16:01:54;4.55;;;3.65;;
52918;SDS011;38793;52.690;6.812;2022-12-05T16:04:47;5.13;;;3.50;;
52918;SDS011;38793;52.690;6.812;2022-12-05T16:07:15;4.13;;;3.35;;
52918;SDS011;38793;52.690;6.812;2022-12-05T16:09:42;8.05;;;3.72;;
52918;SDS011;38793;52.690;6.812;2022-12-05T16:15:01;4.22;;;3.15;;
52918;SDS011;38793;52.690;6.812;2022-12-05T16:17:30;8.70;;;3.78;;
52918;SDS011;38793;52.690;6.812;2022-12-05T16:20:12;6.65;;;3.85;;
52918;SDS011;38793;52.690;6.812;2022-12-05T16:22:47;5.03;;;3.45;;
52918;SDS011;38793;52.690;6.812;2022-12-05T16:25:21;6.57;;;3.45;;
52918;SDS011;38793;52.690;6.812;2022-12-05T16:30:32;4.35;;;2.65;;
52918;SDS011;38793;52.690;6.812;2022-12-05T16:33:00;4.13;;;2.45;;
52918;SDS011;38793;52.690;6.812;2022-12-05T16:35:44;6.28;;;3.20;;
52918;SDS011;38793;52.690;6.812;2022-12-05T16:41:00;4.68;;;3.55;;
52918;SDS011;38793;52.690;6.812;2022-12-05T16:45:57;3.53;;;2.72;;
52918;SDS011;38793;52.690;6.812;2022-12-05T16:48:36;5.88;;;3.67;;
52918;SDS011;38793;52.690;6.812;2022-12-05T16:53:42;6.25;;;3.80;;
52918;SDS011;38793;52.690;6.812;2022-12-05T16:56:15;10.68;;;4.18;;
52918;SDS011;38793;52.690;6.812;2022-12-05T16:58:45;10.38;;;6.93;;
52918;SDS011;38793;52.690;6.812;2022-12-05T17:01:15;4.18;;;3.30;;
52918;SDS011;38793;52.690;6.812;2022-12-05T17:03:43;4.53;;;2.97;;
52918;SDS011;38793;52.690;6.812;2022-12-05T17:06:09;4.55;;;2.78;;
52918;SDS011;38793;52.690;6.812;2022-12-05T17:08:35;11.02;;;3.33;;
52918;SDS011;38793;52.690;6.812;2022-12-05T17:11:01;5.43;;;3.83;;
52918;SDS011;38793;52.690;6.812;2022-12-05T17:13:27;7.57;;;3.67;;
52918;SDS011;38793;52.690;6.812;2022-12-05T17:15:54;6.75;;;3.10;;
52918;SDS011;38793;52.690;6.812;2022-12-05T17:18:19;5.13;;;3.50;;
52918;SDS011;38793;52.690;6.812;2022-12-05T17:20:47;5.32;;;4.30;;
52918;SDS011;38793;52.690;6.812;2022-12-05T17:23:15;6.38;;;4.40;;
52918;SDS011;38793;52.690;6.812;2022-12-05T17:26:15;5.80;;;4.03;;
52918;SDS011;38793;52.690;6.812;2022-12-05T17:28:36;3.47;;;2.97;;
52918;SDS011;38793;52.690;6.812;2022-12-05T17:31:02;8.13;;;5.38;;
52918;SDS011;38793;52.690;6.812;2022-12-05T17:33:28;5.03;;;4.07;;
52918;SDS011;38793;52.690;6.812;2022-12-05T17:35:54;7.80;;;4.23;;
52918;SDS011;38793;52.690;6.812;2022-12-05T17:38:19;5.77;;;3.73;;
52918;SDS011;38793;52.690;6.812;2022-12-05T17:40:45;4.90;;;3.72;;
52918;SDS011;38793;52.690;6.812;2022-12-05T17:43:12;4.05;;;3.63;;
52918;SDS011;38793;52.690;6.812;2022-12-05T17:48:04;3.25;;;2.65;;
52918;SDS011;38793;52.690;6.812;2022-12-05T17:50:29;5.78;;;3.35;;
52918;SDS011;38793;52.690;6.812;2022-12-05T17:52:55;6.07;;;4.67;;
52918;SDS011;38793;52.690;6.812;2022-12-05T17:55:26;6.32;;;3.85;;
52918;SDS011;38793;52.690;6.812;2022-12-05T17:57:53;5.63;;;4.18;;
52918;SDS011;38793;52.690;6.812;2022-12-05T18:00:20;6.97;;;4.07;;
52918;SDS011;38793;52.690;6.812;2022-12-05T18:02:47;5.32;;;4.03;;
52918;SDS011;38793;52.690;6.812;2022-12-05T18:05:13;8.98;;;4.50;;
52918;SDS011;38793;52.690;6.812;2022-12-05T18:10:07;6.38;;;3.97;;
52918;SDS011;38793;52.690;6.812;2022-12-05T18:12:34;8.13;;;4.63;;
52918;SDS011;38793;52.690;6.812;2022-12-05T18:15:01;9.07;;;5.00;;
52918;SDS011;38793;52.690;6.812;2022-12-05T18:17:26;9.02;;;4.85;;
52918;SDS011;38793;52.690;6.812;2022-12-05T18:19:53;6.47;;;4.50;;
52918;SDS011;38793;52.690;6.812;2022-12-05T18:22:25;8.25;;;4.38;;
52918;SDS011;38793;52.690;6.812;2022-12-05T18:24:51;11.18;;;5.75;;
52918;SDS011;38793;52.690;6.812;2022-12-05T18:27:18;11.57;;;6.47;;
52918;SDS011;38793;52.690;6.812;2022-12-05T18:29:47;7.70;;;5.97;;
52918;SDS011;38793;52.690;6.812;2022-12-05T18:32:13;6.35;;;5.25;;
52918;SDS011;38793;52.690;6.812;2022-12-05T18:34:39;8.13;;;5.35;;
52918;SDS011;38793;52.690;6.812;2022-12-05T18:37:05;10.00;;;6.20;;
52918;SDS011;38793;52.690;6.812;2022-12-05T18:39:31;9.23;;;6.40;;
52918;SDS011;38793;52.690;6.812;2022-12-05T18:41:57;8.90;;;5.70;;
52918;SDS011;38793;52.690;6.812;2022-12-05T18:44:22;9.17;;;5.57;;
52918;SDS011;38793;52.690;6.812;2022-12-05T18:46:48;13.23;;;6.90;;
52918;SDS011;38793;52.690;6.812;2022-12-05T18:49:13;8.70;;;5.90;;
52918;SDS011;38793;52.690;6.812;2022-12-05T18:51:39;14.00;;;6.75;;
52918;SDS011;38793;52.690;6.812;2022-12-05T18:54:05;12.55;;;6.75;;
52918;SDS011;38793;52.690;6.812;2022-12-05T18:56:32;8.73;;;6.30;;
52918;SDS011;38793;52.690;6.812;2022-12-05T18:59:14;11.15;;;7.18;;
52918;SDS011;38793;52.690;6.812;2022-12-05T19:01:41;12.05;;;6.40;;
52918;SDS011;38793;52.690;6.812;2022-12-05T19:04:08;13.77;;;7.53;;
52918;SDS011;38793;52.690;6.812;2022-12-05T19:06:38;8.00;;;6.05;;
52918;SDS011;38793;52.690;6.812;2022-12-05T19:09:09;9.30;;;6.70;;
52918;SDS011;38793;52.690;6.812;2022-12-05T19:11:43;13.55;;;6.95;;
52918;SDS011;38793;52.690;6.812;2022-12-05T19:14:10;11.18;;;7.55;;
52918;SDS011;38793;52.690;6.812;2022-12-05T19:16:36;10.43;;;6.88;;
52918;SDS011;38793;52.690;6.812;2022-12-05T19:19:04;11.27;;;7.40;;
52918;SDS011;38793;52.690;6.812;2022-12-05T19:21:32;10.00;;;5.85;;
52918;SDS011;38793;52.690;6.812;2022-12-05T19:23:59;13.98;;;6.65;;
52918;SDS011;38793;52.690;6.812;2022-12-05T19:26:26;10.55;;;7.28;;
52918;SDS011;38793;52.690;6.812;2022-12-05T19:28:51;9.50;;;6.70;;
52918;SDS011;38793;52.690;6.812;2022-12-05T19:31:18;12.00;;;6.85;;
52918;SDS011;38793;52.690;6.812;2022-12-05T19:33:47;13.50;;;7.20;;
52918;SDS011;38793;52.690;6.812;2022-12-05T19:36:15;17.63;;;8.50;;
52918;SDS011;38793;52.690;6.812;2022-12-05T19:38:49;14.07;;;7.53;;
52918;SDS011;38793;52.690;6.812;2022-12-05T19:41:16;12.27;;;6.78;;
52918;SDS011;38793;52.690;6.812;2022-12-05T19:43:43;10.48;;;6.90;;
52918;SDS011;38793;52.690;6.812;2022-12-05T19:46:10;13.20;;;8.63;;
52918;SDS011;38793;52.690;6.812;2022-12-05T19:48:41;11.90;;;7.22;;
52918;SDS011;38793;52.690;6.812;2022-12-05T19:51:07;12.90;;;7.97;;
52918;SDS011;38793;52.690;6.812;2022-12-05T19:53:34;13.20;;;7.53;;
52918;SDS011;38793;52.690;6.812;2022-12-05T19:56:05;14.18;;;7.00;;
52918;SDS011;38793;52.690;6.812;2022-12-05T19:58:43;9.70;;;7.22;;
52918;SDS011;38793;52.690;6.812;2022-12-05T20:03:38;9.48;;;7.43;;
52918;SDS011;38793;52.690;6.812;2022-12-05T20:06:04;13.18;;;6.63;;
52918;SDS011;38793;52.690;6.812;2022-12-05T20:11:04;12.73;;;8.20;;
52918;SDS011;38793;52.690;6.812;2022-12-05T20:13:35;10.23;;;7.28;;
52918;SDS011;38793;52.690;6.812;2022-12-05T20:16:02;9.32;;;6.97;;
52918;SDS011;38793;52.690;6.812;2022-12-05T20:18:30;11.48;;;7.28;;
52918;SDS011;38793;52.690;6.812;2022-12-05T20:20:57;11.65;;;6.78;;
52918;SDS011;38793;52.690;6.812;2022-12-05T20:23:24;12.02;;;7.63;;
52918;SDS011;38793;52.690;6.812;2022-12-05T20:25:51;12.50;;;7.43;;
52918;SDS011;38793;52.690;6.812;2022-12-05T20:28:17;11.68;;;9.23;;
52918;SDS011;38793;52.690;6.812;2022-12-05T20:30:43;12.67;;;8.00;;
52918;SDS011;38793;52.690;6.812;2022-12-05T20:33:08;10.47;;;7.13;;
52918;SDS011;38793;52.690;6.812;2022-12-05T20:35:34;11.30;;;7.97;;
52918;SDS011;38793;52.690;6.812;2022-12-05T20:38:00;9.20;;;7.40;;
52918;SDS011;38793;52.690;6.812;2022-12-05T20:40:26;9.77;;;7.53;;
52918;SDS011;38793;52.690;6.812;2022-12-05T20:42:52;11.90;;;8.02;;
52918;SDS011;38793;52.690;6.812;2022-12-05T20:45:18;10.38;;;7.50;;
52918;SDS011;38793;52.690;6.812;2022-12-05T20:47:43;9.57;;;7.30;;
52918;SDS011;38793;52.690;6.812;2022-12-05T20:50:09;10.37;;;7.97;;
52918;SDS011;38793;52.690;6.812;2022-12-05T20:52:35;9.27;;;7.05;;
52918;SDS011;38793;52.690;6.812;2022-12-05T20:55:01;9.67;;;7.20;;
52918;SDS011;38793;52.690;6.812;2022-12-05T20:57:26;8.27;;;6.70;;
52918;SDS011;38793;52.690;6.812;2022-12-05T20:59:52;12.87;;;6.93;;
52918;SDS011;38793;52.690;6.812;2022-12-05T21:02:17;11.77;;;7.70;;
52918;SDS011;38793;52.690;6.812;2022-12-05T21:04:43;8.65;;;7.38;;
52918;SDS011;38793;52.690;6.812;2022-12-05T21:07:09;10.70;;;7.80;;
52918;SDS011;38793;52.690;6.812;2022-12-05T21:09:34;14.07;;;8.20;;
52918;SDS011;38793;52.690;6.812;2022-12-05T21:12:00;10.10;;;7.53;;
52918;SDS011;38793;52.690;6.812;2022-12-05T21:14:26;14.05;;;7.68;;
52918;SDS011;38793;52.690;6.812;2022-12-05T21:16:51;13.13;;;7.80;;
52918;SDS011;38793;52.690;6.812;2022-12-05T21:19:18;16.75;;;8.20;;
52918;SDS011;38793;52.690;6.812;2022-12-05T21:21:44;13.07;;;8.32;;
52918;SDS011;38793;52.690;6.812;2022-12-05T21:24:10;9.90;;;7.87;;
52918;SDS011;38793;52.690;6.812;2022-12-05T21:26:35;10.03;;;7.53;;
52918;SDS011;38793;52.690;6.812;2022-12-05T21:29:02;12.98;;;8.80;;
52918;SDS011;38793;52.690;6.812;2022-12-05T21:31:30;12.98;;;9.18;;
52918;SDS011;38793;52.690;6.812;2022-12-05T21:33:59;14.45;;;9.05;;
52918;SDS011;38793;52.690;6.812;2022-12-05T21:36:28;12.25;;;8.93;;
52918;SDS011;38793;52.690;6.812;2022-12-05T21:38:55;12.70;;;8.88;;
52918;SDS011;38793;52.690;6.812;2022-12-05T21:41:21;14.03;;;9.70;;
52918;SDS011;38793;52.690;6.812;2022-12-05T21:43:46;13.20;;;9.40;;
52918;SDS011;38793;52.690;6.812;2022-12-05T21:46:12;17.73;;;9.47;;
52918;SDS011;38793;52.690;6.812;2022-12-05T21:48:38;15.80;;;9.13;;
52918;SDS011;38793;52.690;6.812;2022-12-05T21:51:04;14.30;;;9.50;;
52918;SDS011;38793;52.690;6.812;2022-12-05T21:53:31;13.50;;;9.27;;
52918;SDS011;38793;52.690;6.812;2022-12-05T21:58:29;12.65;;;9.13;;
52918;SDS011;38793;52.690;6.812;2022-12-05T22:00:55;12.40;;;9.80;;
52918;SDS011;38793;52.690;6.812;2022-12-05T22:03:21;12.75;;;9.70;;
52918;SDS011;38793;52.690;6.812;2022-12-05T22:05:46;16.97;;;10.37;;
52918;SDS011;38793;52.690;6.812;2022-12-05T22:08:13;14.85;;;9.27;;
52918;SDS011;38793;52.690;6.812;2022-12-05T22:10:39;13.95;;;9.65;;
52918;SDS011;38793;52.690;6.812;2022-12-05T22:13:05;13.63;;;9.93;;
52918;SDS011;38793;52.690;6.812;2022-12-05T22:15:30;15.60;;;10.17;;
52918;SDS011;38793;52.690;6.812;2022-12-05T22:17:56;12.20;;;9.55;;
52918;SDS011;38793;52.690;6.812;2022-12-05T22:20:22;13.90;;;9.97;;
52918;SDS011;38793;52.690;6.812;2022-12-05T22:22:48;16.23;;;9.80;;
52918;SDS011;38793;52.690;6.812;2022-12-05T22:25:13;15.63;;;10.33;;
52918;SDS011;38793;52.690;6.812;2022-12-05T22:27:39;19.33;;;11.90;;
52918;SDS011;38793;52.690;6.812;2022-12-05T22:30:05;13.48;;;9.90;;
52918;SDS011;38793;52.690;6.812;2022-12-05T22:32:31;19.52;;;11.27;;
52918;SDS011;38793;52.690;6.812;2022-12-05T22:34:57;13.60;;;11.10;;
52918;SDS011;38793;52.690;6.812;2022-12-05T22:37:22;17.13;;;10.73;;
52918;SDS011;38793;52.690;6.812;2022-12-05T22:39:48;14.23;;;9.17;;
52918;SDS011;38793;52.690;6.812;2022-12-05T22:42:13;13.80;;;10.27;;
52918;SDS011;38793;52.690;6.812;2022-12-05T22:44:39;14.93;;;10.00;;
52918;SDS011;38793;52.690;6.812;2022-12-05T22:47:05;19.43;;;11.30;;
52918;SDS011;38793;52.690;6.812;2022-12-05T22:49:30;14.17;;;10.40;;
52918;SDS011;38793;52.690;6.812;2022-12-05T22:51:56;22.57;;;11.77;;
52918;SDS011;38793;52.690;6.812;2022-12-05T22:54:21;14.90;;;10.37;;
52918;SDS011;38793;52.690;6.812;2022-12-05T22:56:47;15.97;;;10.60;;
52918;SDS011;38793;52.690;6.812;2022-12-05T22:59:12;44.63;;;12.90;;
52918;SDS011;38793;52.690;6.812;2022-12-05T23:01:38;18.33;;;10.03;;
52918;SDS011;38793;52.690;6.812;2022-12-05T23:04:04;18.80;;;10.17;;
52918;SDS011;38793;52.690;6.812;2022-12-05T23:06:32;15.00;;;9.45;;
52918;SDS011;38793;52.690;6.812;2022-12-05T23:08:59;14.13;;;9.90;;
52918;SDS011;38793;52.690;6.812;2022-12-05T23:11:26;14.15;;;9.93;;
52918;SDS011;38793;52.690;6.812;2022-12-05T23:13:52;16.33;;;8.82;;
52918;SDS011;38793;52.690;6.812;2022-12-05T23:16:21;15.63;;;9.48;;
52918;SDS011;38793;52.690;6.812;2022-12-05T23:18:50;14.90;;;9.48;;
52918;SDS011;38793;52.690;6.812;2022-12-05T23:21:21;12.38;;;8.95;;
52918;SDS011;38793;52.690;6.812;2022-12-05T23:23:51;13.65;;;9.30;;
52918;SDS011;38793;52.690;6.812;2022-12-05T23:26:19;15.07;;;9.00;;
52918;SDS011;38793;52.690;6.812;2022-12-05T23:28:47;11.15;;;8.77;;
52918;SDS011;38793;52.690;6.812;2022-12-05T23:31:13;11.85;;;8.52;;
52918;SDS011;38793;52.690;6.812;2022-12-05T23:33:39;13.70;;;8.75;;
52918;SDS011;38793;52.690;6.812;2022-12-05T23:36:05;12.07;;;8.37;;
52918;SDS011;38793;52.690;6.812;2022-12-05T23:38:34;12.57;;;8.52;;
52918;SDS011;38793;52.690;6.812;2022-12-05T23:41:12;14.23;;;8.82;;
52918;SDS011;38793;52.690;6.812;2022-12-05T23:43:40;14.75;;;8.32;;
52918;SDS011;38793;52.690;6.812;2022-12-05T23:46:07;14.00;;;7.53;;
52918;SDS011;38793;52.690;6.812;2022-12-05T23:48:33;15.32;;;8.43;;
52918;SDS011;38793;52.690;6.812;2022-12-05T23:53:30;12.60;;;7.68;;
52918;SDS011;38793;52.690;6.812;2022-12-05T23:56:16;15.38;;;7.82;;
52918;SDS011;38793;52.690;6.812;2022-12-05T23:58:44;11.93;;;7.50;;
